This is the latest recevied weather packets stored in our database for station/object WV4O. If no packets are shown the sender has not sent any weather packets the latest 10 day(s).
| Time | Temp. | Humidity | Pressure | Rain* | Wind** | Luminosity | Snow |
|---|---|---|---|---|---|---|---|
| 1778325917 | 13.33° C | 91% | 1008.5 hPa | 0 mm | - | 38 W/m² | - |
| 1778324117 | 13.33° C | 91% | 1008.4 hPa | 0 mm | - | 5 W/m² | - |
| 1778319918 | 14.44° C | 86% | 1008.4 hPa | 0 mm | - | 0 W/m² | - |
| 1778315119 | 16.11° C | 80% | 1008.4 hPa | 0 mm | - | 0 W/m² | - |
| 1778313316 | 16.11° C | 78% | 1008.6 hPa | 0 mm | - | 0 W/m² | - |
| 1778310337 | 16.11° C | 76% | 1008.2 hPa | 0 mm | - | 0 W/m² | - |
| 1778302537 | 17.22° C | 68% | 1009.2 hPa | 0 mm | - | 0 W/m² | - |
| 1778301916 | 17.22° C | 67% | 1009.5 hPa | 0 mm | - | 0 W/m² | - |
| 1778300717 | 17.22° C | 65% | 1009.7 hPa | 0 mm | - | 0 W/m² | - |
| 1778297118 | 17.78° C | 60% | 1009.3 hPa | 0 mm | - | 0 W/m² | - |
| 1778294719 | 18.33° C | 58% | 1009.5 hPa | 0 mm | - | 0 W/m² | - |
| 1778291157 | 19.44° C | 57% | 1009.6 hPa | 0 mm | - | 0 W/m² | - |
| 1778280939 | 22.78° C | 44% | 1010.3 hPa | 0 mm | - | 75 W/m² | - |
| 1778280318 | 22.78° C | 43% | 1010.5 hPa | 0 mm | - | 91 W/m² | - |
| 1778279719 | 23.33° C | 43% | 1010.6 hPa | 0 mm | - | 79 W/m² | - |
| 1778277316 | 23.33° C | 42% | 1010 hPa | 0 mm | - | 476 W/m² | - |
| 1778268918 | 22.78° C | 39% | 1010.9 hPa | 0 mm | - | 884 W/m² | - |
| 1778266517 | 22.22° C | 39% | 1011.9 hPa | 0 mm | - | 962 W/m² | - |
| 1778264118 | 21.67° C | 42% | 1012.2 hPa | 0 mm | - | 990 W/m² | - |
| 1778261117 | 21.11° C | 45% | 1012.7 hPa | 0 mm | - | 979 W/m² | - |
| 1778258118 | 20° C | 47% | 1013.3 hPa | 0 mm | - | 922 W/m² | - |
| 1778255138 | 18.89° C | 49% | 1014 hPa | 0 mm | - | 825 W/m² | - |
| 1778252716 | 18.33° C | 52% | 1014.1 hPa | 0 mm | - | 721 W/m² | - |
| 1778251517 | 17.78° C | 51% | 1014.3 hPa | 0 mm | - | 663 W/m² | - |
| 1778247317 | 15° C | 65% | 1014.5 hPa | 0 mm | - | 376 W/m² | - |
* Rain latest hour (hover to see other rain measurements)
** Current wind speed in m/s (hover to see current wind gust speed)